sensor_id;sensor_type;location;lat;lon;timestamp;P1;durP1;ratioP1;P2;durP2;ratioP2
39094;SDS011;24840;47.508;19.376;2023-11-19T00:00:53;11.57;;;7.67;;
39094;SDS011;24840;47.508;19.376;2023-11-19T00:03:19;11.67;;;7.20;;
39094;SDS011;24840;47.508;19.376;2023-11-19T00:05:45;14.10;;;8.17;;
39094;SDS011;24840;47.508;19.376;2023-11-19T00:08:11;12.93;;;8.67;;
39094;SDS011;24840;47.508;19.376;2023-11-19T00:10:37;10.33;;;7.30;;
39094;SDS011;24840;47.508;19.376;2023-11-19T00:13:04;12.37;;;7.53;;
39094;SDS011;24840;47.508;19.376;2023-11-19T00:15:30;11.37;;;7.43;;
39094;SDS011;24840;47.508;19.376;2023-11-19T00:17:56;8.87;;;6.93;;
39094;SDS011;24840;47.508;19.376;2023-11-19T00:20:22;10.57;;;7.23;;
39094;SDS011;24840;47.508;19.376;2023-11-19T00:22:48;12.37;;;7.57;;
39094;SDS011;24840;47.508;19.376;2023-11-19T00:25:20;17.57;;;7.97;;
39094;SDS011;24840;47.508;19.376;2023-11-19T00:27:47;14.77;;;8.43;;
39094;SDS011;24840;47.508;19.376;2023-11-19T00:30:13;12.97;;;7.60;;
39094;SDS011;24840;47.508;19.376;2023-11-19T00:32:39;14.97;;;9.53;;
39094;SDS011;24840;47.508;19.376;2023-11-19T00:35:06;13.20;;;9.40;;
39094;SDS011;24840;47.508;19.376;2023-11-19T00:37:35;16.03;;;9.90;;
39094;SDS011;24840;47.508;19.376;2023-11-19T00:40:01;14.57;;;9.87;;
39094;SDS011;24840;47.508;19.376;2023-11-19T00:42:30;18.77;;;8.83;;
39094;SDS011;24840;47.508;19.376;2023-11-19T00:44:56;14.90;;;9.83;;
39094;SDS011;24840;47.508;19.376;2023-11-19T00:47:23;13.17;;;9.70;;
39094;SDS011;24840;47.508;19.376;2023-11-19T00:49:49;14.53;;;10.43;;
39094;SDS011;24840;47.508;19.376;2023-11-19T00:52:15;13.77;;;9.50;;
39094;SDS011;24840;47.508;19.376;2023-11-19T00:54:42;14.43;;;9.40;;
39094;SDS011;24840;47.508;19.376;2023-11-19T00:57:08;13.53;;;9.03;;
39094;SDS011;24840;47.508;19.376;2023-11-19T00:59:34;17.53;;;8.80;;
39094;SDS011;24840;47.508;19.376;2023-11-19T01:02:00;12.73;;;9.37;;
39094;SDS011;24840;47.508;19.376;2023-11-19T01:04:34;14.87;;;9.10;;
39094;SDS011;24840;47.508;19.376;2023-11-19T01:07:03;13.27;;;8.30;;
39094;SDS011;24840;47.508;19.376;2023-11-19T01:09:33;12.97;;;7.70;;
39094;SDS011;24840;47.508;19.376;2023-11-19T01:11:59;12.03;;;7.50;;
39094;SDS011;24840;47.508;19.376;2023-11-19T01:14:26;10.53;;;7.07;;
39094;SDS011;24840;47.508;19.376;2023-11-19T01:16:52;14.33;;;8.50;;
39094;SDS011;24840;47.508;19.376;2023-11-19T01:19:19;17.27;;;9.73;;
39094;SDS011;24840;47.508;19.376;2023-11-19T01:21:46;15.63;;;9.67;;
39094;SDS011;24840;47.508;19.376;2023-11-19T01:24:12;13.67;;;9.93;;
39094;SDS011;24840;47.508;19.376;2023-11-19T01:26:39;14.77;;;10.07;;
39094;SDS011;24840;47.508;19.376;2023-11-19T01:29:11;15.80;;;9.97;;
39094;SDS011;24840;47.508;19.376;2023-11-19T01:31:39;15.00;;;8.60;;
39094;SDS011;24840;47.508;19.376;2023-11-19T01:34:05;13.40;;;7.90;;
39094;SDS011;24840;47.508;19.376;2023-11-19T01:36:32;12.73;;;7.93;;
39094;SDS011;24840;47.508;19.376;2023-11-19T01:38:58;16.43;;;8.60;;
39094;SDS011;24840;47.508;19.376;2023-11-19T01:41:24;14.73;;;8.03;;
39094;SDS011;24840;47.508;19.376;2023-11-19T01:43:50;11.43;;;7.67;;
39094;SDS011;24840;47.508;19.376;2023-11-19T01:46:16;10.23;;;7.60;;
39094;SDS011;24840;47.508;19.376;2023-11-19T01:48:43;10.43;;;7.73;;
39094;SDS011;24840;47.508;19.376;2023-11-19T01:51:10;13.40;;;8.70;;
39094;SDS011;24840;47.508;19.376;2023-11-19T01:53:37;13.67;;;8.50;;
39094;SDS011;24840;47.508;19.376;2023-11-19T01:56:04;15.20;;;9.30;;
39094;SDS011;24840;47.508;19.376;2023-11-19T01:58:31;13.17;;;8.53;;
39094;SDS011;24840;47.508;19.376;2023-11-19T02:00:57;10.93;;;7.43;;
39094;SDS011;24840;47.508;19.376;2023-11-19T02:03:23;10.13;;;6.27;;
39094;SDS011;24840;47.508;19.376;2023-11-19T02:05:54;13.40;;;6.33;;
39094;SDS011;24840;47.508;19.376;2023-11-19T02:08:20;10.03;;;6.67;;
39094;SDS011;24840;47.508;19.376;2023-11-19T02:10:46;15.37;;;6.53;;
39094;SDS011;24840;47.508;19.376;2023-11-19T02:13:12;10.20;;;7.40;;
39094;SDS011;24840;47.508;19.376;2023-11-19T02:15:40;15.67;;;7.10;;
39094;SDS011;24840;47.508;19.376;2023-11-19T02:18:19;12.27;;;7.53;;
39094;SDS011;24840;47.508;19.376;2023-11-19T02:20:45;11.63;;;7.53;;
39094;SDS011;24840;47.508;19.376;2023-11-19T02:23:12;12.23;;;7.10;;
39094;SDS011;24840;47.508;19.376;2023-11-19T02:25:39;9.97;;;7.20;;
39094;SDS011;24840;47.508;19.376;2023-11-19T02:28:05;9.67;;;6.73;;
39094;SDS011;24840;47.508;19.376;2023-11-19T02:30:32;12.13;;;7.10;;
39094;SDS011;24840;47.508;19.376;2023-11-19T02:32:58;11.13;;;6.87;;
39094;SDS011;24840;47.508;19.376;2023-11-19T02:35:27;10.40;;;6.47;;
39094;SDS011;24840;47.508;19.376;2023-11-19T02:37:56;8.87;;;6.40;;
39094;SDS011;24840;47.508;19.376;2023-11-19T02:40:22;10.00;;;6.17;;
39094;SDS011;24840;47.508;19.376;2023-11-19T02:42:52;9.67;;;6.40;;
39094;SDS011;24840;47.508;19.376;2023-11-19T02:45:18;10.03;;;6.47;;
39094;SDS011;24840;47.508;19.376;2023-11-19T02:47:44;7.00;;;5.00;;
39094;SDS011;24840;47.508;19.376;2023-11-19T02:50:10;7.77;;;5.40;;
39094;SDS011;24840;47.508;19.376;2023-11-19T02:52:46;6.77;;;5.13;;
39094;SDS011;24840;47.508;19.376;2023-11-19T02:55:12;7.43;;;5.20;;
39094;SDS011;24840;47.508;19.376;2023-11-19T02:57:41;7.57;;;4.93;;
39094;SDS011;24840;47.508;19.376;2023-11-19T03:00:21;9.60;;;6.13;;
39094;SDS011;24840;47.508;19.376;2023-11-19T03:02:57;5.83;;;4.73;;
39094;SDS011;24840;47.508;19.376;2023-11-19T03:05:24;7.50;;;5.10;;
39094;SDS011;24840;47.508;19.376;2023-11-19T03:07:51;8.67;;;4.87;;
39094;SDS011;24840;47.508;19.376;2023-11-19T03:10:17;9.40;;;5.77;;
39094;SDS011;24840;47.508;19.376;2023-11-19T03:12:44;7.13;;;5.33;;
39094;SDS011;24840;47.508;19.376;2023-11-19T03:15:10;6.60;;;3.93;;
39094;SDS011;24840;47.508;19.376;2023-11-19T03:17:40;7.83;;;4.90;;
39094;SDS011;24840;47.508;19.376;2023-11-19T03:20:06;8.57;;;6.60;;
39094;SDS011;24840;47.508;19.376;2023-11-19T03:22:40;14.57;;;8.50;;
39094;SDS011;24840;47.508;19.376;2023-11-19T03:25:12;11.45;;;7.38;;
39094;SDS011;24840;47.508;19.376;2023-11-19T03:27:38;11.17;;;7.73;;
39094;SDS011;24840;47.508;19.376;2023-11-19T03:30:06;16.93;;;9.90;;
39094;SDS011;24840;47.508;19.376;2023-11-19T03:32:34;20.67;;;10.13;;
39094;SDS011;24840;47.508;19.376;2023-11-19T03:35:01;21.47;;;10.53;;
39094;SDS011;24840;47.508;19.376;2023-11-19T03:37:29;14.23;;;10.00;;
39094;SDS011;24840;47.508;19.376;2023-11-19T03:39:57;17.50;;;10.47;;
39094;SDS011;24840;47.508;19.376;2023-11-19T03:42:27;18.20;;;9.77;;
39094;SDS011;24840;47.508;19.376;2023-11-19T03:44:55;18.93;;;9.60;;
39094;SDS011;24840;47.508;19.376;2023-11-19T03:47:21;15.23;;;8.97;;
39094;SDS011;24840;47.508;19.376;2023-11-19T03:49:51;16.70;;;9.27;;
39094;SDS011;24840;47.508;19.376;2023-11-19T03:52:17;15.47;;;8.10;;
39094;SDS011;24840;47.508;19.376;2023-11-19T03:54:44;13.57;;;9.30;;
39094;SDS011;24840;47.508;19.376;2023-11-19T03:57:13;16.37;;;10.63;;
39094;SDS011;24840;47.508;19.376;2023-11-19T03:59:40;15.37;;;10.50;;
39094;SDS011;24840;47.508;19.376;2023-11-19T04:02:06;19.20;;;11.77;;
39094;SDS011;24840;47.508;19.376;2023-11-19T04:04:33;21.50;;;12.20;;
39094;SDS011;24840;47.508;19.376;2023-11-19T04:07:00;20.57;;;12.03;;
39094;SDS011;24840;47.508;19.376;2023-11-19T04:09:27;20.50;;;10.80;;
39094;SDS011;24840;47.508;19.376;2023-11-19T04:11:54;20.17;;;11.23;;
39094;SDS011;24840;47.508;19.376;2023-11-19T04:14:20;19.47;;;11.40;;
39094;SDS011;24840;47.508;19.376;2023-11-19T04:16:46;15.63;;;10.10;;
39094;SDS011;24840;47.508;19.376;2023-11-19T04:19:12;18.43;;;11.17;;
39094;SDS011;24840;47.508;19.376;2023-11-19T04:21:41;16.33;;;9.80;;
39094;SDS011;24840;47.508;19.376;2023-11-19T04:24:07;15.03;;;10.00;;
39094;SDS011;24840;47.508;19.376;2023-11-19T04:26:33;16.87;;;9.60;;
39094;SDS011;24840;47.508;19.376;2023-11-19T04:29:01;17.47;;;9.57;;
39094;SDS011;24840;47.508;19.376;2023-11-19T04:31:30;15.57;;;9.50;;
39094;SDS011;24840;47.508;19.376;2023-11-19T04:33:56;13.30;;;8.17;;
39094;SDS011;24840;47.508;19.376;2023-11-19T04:36:23;14.87;;;9.23;;
39094;SDS011;24840;47.508;19.376;2023-11-19T04:38:50;14.33;;;8.73;;
39094;SDS011;24840;47.508;19.376;2023-11-19T04:41:16;15.63;;;8.63;;
39094;SDS011;24840;47.508;19.376;2023-11-19T04:43:43;14.97;;;8.83;;
39094;SDS011;24840;47.508;19.376;2023-11-19T04:46:12;13.10;;;8.90;;
39094;SDS011;24840;47.508;19.376;2023-11-19T04:48:38;15.63;;;9.60;;
39094;SDS011;24840;47.508;19.376;2023-11-19T04:51:04;13.03;;;8.77;;
39094;SDS011;24840;47.508;19.376;2023-11-19T04:53:30;17.07;;;9.40;;
39094;SDS011;24840;47.508;19.376;2023-11-19T04:55:57;13.37;;;9.37;;
39094;SDS011;24840;47.508;19.376;2023-11-19T04:58:24;14.17;;;8.90;;
39094;SDS011;24840;47.508;19.376;2023-11-19T05:00:50;11.47;;;7.83;;
39094;SDS011;24840;47.508;19.376;2023-11-19T05:03:16;15.00;;;9.13;;
39094;SDS011;24840;47.508;19.376;2023-11-19T05:05:43;17.43;;;8.33;;
39094;SDS011;24840;47.508;19.376;2023-11-19T05:08:09;12.10;;;7.90;;
39094;SDS011;24840;47.508;19.376;2023-11-19T05:10:36;11.13;;;7.33;;
39094;SDS011;24840;47.508;19.376;2023-11-19T05:13:02;11.63;;;7.37;;
39094;SDS011;24840;47.508;19.376;2023-11-19T05:15:28;12.77;;;8.10;;
39094;SDS011;24840;47.508;19.376;2023-11-19T05:17:54;11.27;;;7.23;;
39094;SDS011;24840;47.508;19.376;2023-11-19T05:20:20;13.20;;;7.80;;
39094;SDS011;24840;47.508;19.376;2023-11-19T05:22:46;12.17;;;8.60;;
39094;SDS011;24840;47.508;19.376;2023-11-19T05:25:13;12.80;;;8.00;;
39094;SDS011;24840;47.508;19.376;2023-11-19T05:27:39;13.93;;;8.23;;
39094;SDS011;24840;47.508;19.376;2023-11-19T05:30:05;10.03;;;7.83;;
39094;SDS011;24840;47.508;19.376;2023-11-19T05:32:35;10.87;;;7.50;;
39094;SDS011;24840;47.508;19.376;2023-11-19T05:35:02;11.33;;;7.77;;
39094;SDS011;24840;47.508;19.376;2023-11-19T05:37:28;8.23;;;6.90;;
39094;SDS011;24840;47.508;19.376;2023-11-19T05:39:54;10.30;;;6.83;;
39094;SDS011;24840;47.508;19.376;2023-11-19T05:42:20;11.30;;;7.30;;
39094;SDS011;24840;47.508;19.376;2023-11-19T05:44:46;9.93;;;6.97;;
39094;SDS011;24840;47.508;19.376;2023-11-19T05:47:12;8.07;;;5.77;;
39094;SDS011;24840;47.508;19.376;2023-11-19T05:49:39;7.73;;;5.93;;
39094;SDS011;24840;47.508;19.376;2023-11-19T05:52:06;9.60;;;6.53;;
39094;SDS011;24840;47.508;19.376;2023-11-19T05:54:32;9.37;;;6.50;;
39094;SDS011;24840;47.508;19.376;2023-11-19T05:57:03;6.80;;;5.50;;
39094;SDS011;24840;47.508;19.376;2023-11-19T05:59:30;12.60;;;6.57;;
39094;SDS011;24840;47.508;19.376;2023-11-19T06:01:58;10.10;;;5.63;;
39094;SDS011;24840;47.508;19.376;2023-11-19T06:04:24;8.00;;;6.03;;
39094;SDS011;24840;47.508;19.376;2023-11-19T06:06:50;8.67;;;6.90;;
39094;SDS011;24840;47.508;19.376;2023-11-19T06:09:16;9.10;;;5.97;;
39094;SDS011;24840;47.508;19.376;2023-11-19T06:11:43;7.90;;;5.53;;
39094;SDS011;24840;47.508;19.376;2023-11-19T06:14:09;7.53;;;5.63;;
39094;SDS011;24840;47.508;19.376;2023-11-19T06:16:36;9.13;;;6.30;;
39094;SDS011;24840;47.508;19.376;2023-11-19T06:19:04;8.67;;;5.80;;
39094;SDS011;24840;47.508;19.376;2023-11-19T06:21:30;7.83;;;5.33;;
39094;SDS011;24840;47.508;19.376;2023-11-19T06:23:56;7.23;;;5.67;;
39094;SDS011;24840;47.508;19.376;2023-11-19T06:26:23;8.40;;;6.93;;
39094;SDS011;24840;47.508;19.376;2023-11-19T06:28:49;7.67;;;5.63;;
39094;SDS011;24840;47.508;19.376;2023-11-19T06:31:15;10.10;;;6.47;;
39094;SDS011;24840;47.508;19.376;2023-11-19T06:33:42;8.03;;;6.03;;
39094;SDS011;24840;47.508;19.376;2023-11-19T06:36:08;10.03;;;7.07;;
39094;SDS011;24840;47.508;19.376;2023-11-19T06:38:34;8.53;;;6.00;;
39094;SDS011;24840;47.508;19.376;2023-11-19T06:41:00;10.10;;;5.83;;
39094;SDS011;24840;47.508;19.376;2023-11-19T06:43:26;7.10;;;5.43;;
39094;SDS011;24840;47.508;19.376;2023-11-19T06:45:53;11.23;;;7.00;;
39094;SDS011;24840;47.508;19.376;2023-11-19T06:48:19;7.97;;;5.73;;
39094;SDS011;24840;47.508;19.376;2023-11-19T06:50:45;9.90;;;6.90;;
39094;SDS011;24840;47.508;19.376;2023-11-19T06:53:11;11.37;;;6.20;;
39094;SDS011;24840;47.508;19.376;2023-11-19T06:55:38;9.07;;;6.47;;
39094;SDS011;24840;47.508;19.376;2023-11-19T06:58:05;14.67;;;7.87;;
39094;SDS011;24840;47.508;19.376;2023-11-19T07:00:32;14.67;;;6.77;;
39094;SDS011;24840;47.508;19.376;2023-11-19T07:02:58;8.17;;;5.70;;
39094;SDS011;24840;47.508;19.376;2023-11-19T07:05:25;12.17;;;7.90;;
39094;SDS011;24840;47.508;19.376;2023-11-19T07:07:51;9.93;;;7.27;;
39094;SDS011;24840;47.508;19.376;2023-11-19T07:10:17;9.20;;;7.07;;
39094;SDS011;24840;47.508;19.376;2023-11-19T07:12:43;8.67;;;6.93;;
39094;SDS011;24840;47.508;19.376;2023-11-19T07:15:10;12.67;;;7.70;;
39094;SDS011;24840;47.508;19.376;2023-11-19T07:17:38;12.03;;;8.37;;
39094;SDS011;24840;47.508;19.376;2023-11-19T07:20:05;10.73;;;7.37;;
39094;SDS011;24840;47.508;19.376;2023-11-19T07:22:31;12.50;;;8.77;;
39094;SDS011;24840;47.508;19.376;2023-11-19T07:24:58;11.87;;;8.00;;
39094;SDS011;24840;47.508;19.376;2023-11-19T07:27:24;15.93;;;9.47;;
39094;SDS011;24840;47.508;19.376;2023-11-19T07:29:51;24.63;;;9.93;;
39094;SDS011;24840;47.508;19.376;2023-11-19T07:32:17;12.37;;;8.97;;
39094;SDS011;24840;47.508;19.376;2023-11-19T07:34:43;12.40;;;9.33;;
39094;SDS011;24840;47.508;19.376;2023-11-19T07:37:09;20.30;;;9.63;;
39094;SDS011;24840;47.508;19.376;2023-11-19T07:39:35;14.77;;;9.67;;
39094;SDS011;24840;47.508;19.376;2023-11-19T07:42:03;22.07;;;11.03;;
39094;SDS011;24840;47.508;19.376;2023-11-19T07:44:29;13.97;;;9.60;;
39094;SDS011;24840;47.508;19.376;2023-11-19T07:46:56;11.73;;;9.00;;
39094;SDS011;24840;47.508;19.376;2023-11-19T07:49:22;14.17;;;10.40;;
39094;SDS011;24840;47.508;19.376;2023-11-19T07:51:48;13.27;;;10.23;;
39094;SDS011;24840;47.508;19.376;2023-11-19T07:54:14;12.97;;;10.20;;
39094;SDS011;24840;47.508;19.376;2023-11-19T07:56:40;20.23;;;11.10;;
39094;SDS011;24840;47.508;19.376;2023-11-19T07:59:06;15.43;;;10.90;;
39094;SDS011;24840;47.508;19.376;2023-11-19T08:01:32;17.30;;;11.80;;
39094;SDS011;24840;47.508;19.376;2023-11-19T08:03:58;13.80;;;10.80;;
39094;SDS011;24840;47.508;19.376;2023-11-19T08:06:26;12.87;;;9.70;;
39094;SDS011;24840;47.508;19.376;2023-11-19T08:08:52;14.40;;;11.00;;
39094;SDS011;24840;47.508;19.376;2023-11-19T08:11:19;18.03;;;11.03;;
39094;SDS011;24840;47.508;19.376;2023-11-19T08:13:45;14.20;;;10.43;;
39094;SDS011;24840;47.508;19.376;2023-11-19T08:16:11;14.83;;;11.43;;
39094;SDS011;24840;47.508;19.376;2023-11-19T08:18:37;14.27;;;10.57;;
39094;SDS011;24840;47.508;19.376;2023-11-19T08:21:03;12.70;;;10.10;;
39094;SDS011;24840;47.508;19.376;2023-11-19T08:23:30;19.87;;;11.33;;
39094;SDS011;24840;47.508;19.376;2023-11-19T08:25:56;16.67;;;11.33;;
39094;SDS011;24840;47.508;19.376;2023-11-19T08:28:22;17.57;;;10.47;;
39094;SDS011;24840;47.508;19.376;2023-11-19T08:30:48;18.93;;;10.73;;
39094;SDS011;24840;47.508;19.376;2023-11-19T08:33:15;17.10;;;11.37;;
39094;SDS011;24840;47.508;19.376;2023-11-19T08:35:42;14.60;;;9.63;;
39094;SDS011;24840;47.508;19.376;2023-11-19T08:38:08;13.83;;;10.83;;
39094;SDS011;24840;47.508;19.376;2023-11-19T08:40:34;19.03;;;11.83;;
39094;SDS011;24840;47.508;19.376;2023-11-19T08:43:00;13.37;;;10.43;;
39094;SDS011;24840;47.508;19.376;2023-11-19T08:45:26;18.83;;;11.53;;
39094;SDS011;24840;47.508;19.376;2023-11-19T08:47:58;14.57;;;10.13;;
39094;SDS011;24840;47.508;19.376;2023-11-19T08:50:27;15.20;;;10.63;;
39094;SDS011;24840;47.508;19.376;2023-11-19T08:52:54;16.20;;;10.97;;
39094;SDS011;24840;47.508;19.376;2023-11-19T08:55:20;16.83;;;12.40;;
39094;SDS011;24840;47.508;19.376;2023-11-19T08:57:49;20.13;;;13.23;;
39094;SDS011;24840;47.508;19.376;2023-11-19T09:00:15;18.83;;;13.57;;
39094;SDS011;24840;47.508;19.376;2023-11-19T09:02:41;22.67;;;15.43;;
39094;SDS011;24840;47.508;19.376;2023-11-19T09:05:08;28.03;;;16.03;;
39094;SDS011;24840;47.508;19.376;2023-11-19T09:07:34;21.20;;;14.50;;
39094;SDS011;24840;47.508;19.376;2023-11-19T09:10:00;25.37;;;16.00;;
39094;SDS011;24840;47.508;19.376;2023-11-19T09:12:27;27.53;;;18.00;;
39094;SDS011;24840;47.508;19.376;2023-11-19T09:14:53;22.43;;;14.77;;
39094;SDS011;24840;47.508;19.376;2023-11-19T09:17:19;20.43;;;14.80;;
39094;SDS011;24840;47.508;19.376;2023-11-19T09:19:45;17.93;;;12.87;;
39094;SDS011;24840;47.508;19.376;2023-11-19T09:22:11;21.70;;;15.20;;
39094;SDS011;24840;47.508;19.376;2023-11-19T09:24:37;19.73;;;12.47;;
39094;SDS011;24840;47.508;19.376;2023-11-19T09:27:03;14.73;;;11.33;;
39094;SDS011;24840;47.508;19.376;2023-11-19T09:29:33;15.87;;;11.83;;
39094;SDS011;24840;47.508;19.376;2023-11-19T09:31:59;14.87;;;10.73;;
39094;SDS011;24840;47.508;19.376;2023-11-19T09:34:26;15.07;;;11.20;;
39094;SDS011;24840;47.508;19.376;2023-11-19T09:36:53;15.17;;;11.47;;
39094;SDS011;24840;47.508;19.376;2023-11-19T09:39:19;16.47;;;11.93;;
39094;SDS011;24840;47.508;19.376;2023-11-19T09:41:46;14.60;;;12.17;;
39094;SDS011;24840;47.508;19.376;2023-11-19T09:44:12;36.20;;;14.60;;
39094;SDS011;24840;47.508;19.376;2023-11-19T09:46:42;14.87;;;12.40;;
39094;SDS011;24840;47.508;19.376;2023-11-19T09:49:08;17.23;;;13.13;;
39094;SDS011;24840;47.508;19.376;2023-11-19T09:51:35;17.60;;;12.30;;
39094;SDS011;24840;47.508;19.376;2023-11-19T09:54:02;18.23;;;13.10;;
39094;SDS011;24840;47.508;19.376;2023-11-19T09:56:31;18.97;;;14.10;;
39094;SDS011;24840;47.508;19.376;2023-11-19T09:58:58;17.90;;;13.23;;
39094;SDS011;24840;47.508;19.376;2023-11-19T10:01:25;16.30;;;12.37;;
39094;SDS011;24840;47.508;19.376;2023-11-19T10:03:51;17.97;;;12.63;;
39094;SDS011;24840;47.508;19.376;2023-11-19T10:06:20;14.90;;;10.90;;
39094;SDS011;24840;47.508;19.376;2023-11-19T10:08:46;17.20;;;12.27;;
39094;SDS011;24840;47.508;19.376;2023-11-19T10:11:12;16.97;;;11.80;;
39094;SDS011;24840;47.508;19.376;2023-11-19T10:13:40;20.43;;;12.40;;
39094;SDS011;24840;47.508;19.376;2023-11-19T10:16:14;18.23;;;13.27;;
39094;SDS011;24840;47.508;19.376;2023-11-19T10:18:44;13.77;;;10.93;;
39094;SDS011;24840;47.508;19.376;2023-11-19T10:21:11;17.97;;;11.70;;
39094;SDS011;24840;47.508;19.376;2023-11-19T10:23:48;14.43;;;10.63;;
39094;SDS011;24840;47.508;19.376;2023-11-19T10:26:30;12.83;;;10.67;;
39094;SDS011;24840;47.508;19.376;2023-11-19T10:28:58;15.60;;;11.03;;
39094;SDS011;24840;47.508;19.376;2023-11-19T10:31:24;13.93;;;10.33;;
39094;SDS011;24840;47.508;19.376;2023-11-19T10:33:51;17.67;;;10.43;;
39094;SDS011;24840;47.508;19.376;2023-11-19T10:36:17;13.77;;;10.50;;
39094;SDS011;24840;47.508;19.376;2023-11-19T10:38:54;12.67;;;9.80;;
39094;SDS011;24840;47.508;19.376;2023-11-19T10:41:27;37.93;;;11.10;;
39094;SDS011;24840;47.508;19.376;2023-11-19T10:43:54;15.60;;;10.83;;
39094;SDS011;24840;47.508;19.376;2023-11-19T10:46:20;13.63;;;10.47;;
39094;SDS011;24840;47.508;19.376;2023-11-19T10:48:48;14.60;;;10.70;;
39094;SDS011;24840;47.508;19.376;2023-11-19T10:51:16;13.27;;;10.03;;
39094;SDS011;24840;47.508;19.376;2023-11-19T10:53:46;13.82;;;9.82;;
39094;SDS011;24840;47.508;19.376;2023-11-19T10:56:13;17.10;;;9.87;;
39094;SDS011;24840;47.508;19.376;2023-11-19T10:58:44;15.33;;;10.70;;
39094;SDS011;24840;47.508;19.376;2023-11-19T11:01:18;18.40;;;10.23;;
39094;SDS011;24840;47.508;19.376;2023-11-19T11:03:48;16.00;;;11.20;;
39094;SDS011;24840;47.508;19.376;2023-11-19T11:06:18;14.70;;;10.03;;
39094;SDS011;24840;47.508;19.376;2023-11-19T11:08:44;16.20;;;10.83;;
39094;SDS011;24840;47.508;19.376;2023-11-19T11:11:11;19.63;;;14.10;;
39094;SDS011;24840;47.508;19.376;2023-11-19T11:13:40;56.87;;;15.23;;
39094;SDS011;24840;47.508;19.376;2023-11-19T11:16:08;14.03;;;10.37;;
39094;SDS011;24840;47.508;19.376;2023-11-19T11:18:34;16.73;;;10.67;;
39094;SDS011;24840;47.508;19.376;2023-11-19T11:21:05;11.70;;;8.97;;
39094;SDS011;24840;47.508;19.376;2023-11-19T11:28:36;16.90;;;9.50;;
39094;SDS011;24840;47.508;19.376;2023-11-19T11:31:12;26.23;;;13.57;;
39094;SDS011;24840;47.508;19.376;2023-11-19T11:36:12;14.73;;;10.87;;
39094;SDS011;24840;47.508;19.376;2023-11-19T11:38:41;12.17;;;9.07;;
39094;SDS011;24840;47.508;19.376;2023-11-19T11:41:19;15.97;;;8.63;;
39094;SDS011;24840;47.508;19.376;2023-11-19T11:43:50;12.10;;;9.43;;
39094;SDS011;24840;47.508;19.376;2023-11-19T11:48:54;37.93;;;10.90;;
39094;SDS011;24840;47.508;19.376;2023-11-19T11:51:49;80.70;;;14.83;;
39094;SDS011;24840;47.508;19.376;2023-11-19T11:54:08;12.30;;;9.27;;
39094;SDS011;24840;47.508;19.376;2023-11-19T11:56:38;15.13;;;10.77;;
39094;SDS011;24840;47.508;19.376;2023-11-19T11:59:19;12.23;;;9.60;;
39094;SDS011;24840;47.508;19.376;2023-11-19T12:02:00;14.80;;;10.10;;
39094;SDS011;24840;47.508;19.376;2023-11-19T12:04:27;11.82;;;8.85;;
39094;SDS011;24840;47.508;19.376;2023-11-19T12:07:06;11.37;;;7.93;;
39094;SDS011;24840;47.508;19.376;2023-11-19T12:09:33;12.23;;;8.97;;
39094;SDS011;24840;47.508;19.376;2023-11-19T12:12:17;14.53;;;9.20;;
39094;SDS011;24840;47.508;19.376;2023-11-19T12:15:00;42.93;;;10.60;;
39094;SDS011;24840;47.508;19.376;2023-11-19T12:22:28;21.47;;;11.27;;
39094;SDS011;24840;47.508;19.376;2023-11-19T12:24:54;16.43;;;10.03;;
39094;SDS011;24840;47.508;19.376;2023-11-19T12:27:23;11.67;;;9.83;;
39094;SDS011;24840;47.508;19.376;2023-11-19T12:29:51;16.30;;;11.00;;
39094;SDS011;24840;47.508;19.376;2023-11-19T12:32:18;14.70;;;10.10;;
39094;SDS011;24840;47.508;19.376;2023-11-19T12:34:44;13.07;;;9.77;;
39094;SDS011;24840;47.508;19.376;2023-11-19T12:37:11;15.87;;;10.27;;
39094;SDS011;24840;47.508;19.376;2023-11-19T12:39:37;15.63;;;10.93;;
39094;SDS011;24840;47.508;19.376;2023-11-19T12:42:05;14.73;;;10.47;;
39094;SDS011;24840;47.508;19.376;2023-11-19T12:44:32;17.80;;;10.43;;
39094;SDS011;24840;47.508;19.376;2023-11-19T12:47:02;13.80;;;10.03;;
39094;SDS011;24840;47.508;19.376;2023-11-19T12:49:29;13.80;;;10.20;;
39094;SDS011;24840;47.508;19.376;2023-11-19T12:51:55;13.20;;;9.10;;
39094;SDS011;24840;47.508;19.376;2023-11-19T12:54:34;13.80;;;10.27;;
39094;SDS011;24840;47.508;19.376;2023-11-19T12:57:00;14.20;;;10.27;;
39094;SDS011;24840;47.508;19.376;2023-11-19T12:59:27;14.30;;;10.67;;
39094;SDS011;24840;47.508;19.376;2023-11-19T13:01:59;12.43;;;9.43;;
39094;SDS011;24840;47.508;19.376;2023-11-19T13:04:30;12.47;;;9.67;;
39094;SDS011;24840;47.508;19.376;2023-11-19T13:06:57;15.33;;;11.07;;
39094;SDS011;24840;47.508;19.376;2023-11-19T13:11:49;14.10;;;10.27;;
39094;SDS011;24840;47.508;19.376;2023-11-19T13:14:16;11.60;;;9.63;;
39094;SDS011;24840;47.508;19.376;2023-11-19T13:16:42;44.60;;;11.90;;
39094;SDS011;24840;47.508;19.376;2023-11-19T13:19:08;44.57;;;11.07;;
39094;SDS011;24840;47.508;19.376;2023-11-19T13:21:35;13.97;;;9.27;;
39094;SDS011;24840;47.508;19.376;2023-11-19T13:24:03;12.83;;;9.33;;
39094;SDS011;24840;47.508;19.376;2023-11-19T13:26:29;15.17;;;9.00;;
39094;SDS011;24840;47.508;19.376;2023-11-19T13:28:55;14.20;;;9.73;;
39094;SDS011;24840;47.508;19.376;2023-11-19T13:31:21;13.33;;;9.53;;
39094;SDS011;24840;47.508;19.376;2023-11-19T13:33:48;17.87;;;8.40;;
39094;SDS011;24840;47.508;19.376;2023-11-19T13:36:14;12.57;;;9.40;;
39094;SDS011;24840;47.508;19.376;2023-11-19T13:38:40;13.60;;;9.60;;
39094;SDS011;24840;47.508;19.376;2023-11-19T13:41:07;15.40;;;11.47;;
39094;SDS011;24840;47.508;19.376;2023-11-19T13:43:35;13.07;;;10.00;;
39094;SDS011;24840;47.508;19.376;2023-11-19T13:46:01;11.80;;;10.13;;
39094;SDS011;24840;47.508;19.376;2023-11-19T13:48:28;12.70;;;9.83;;
39094;SDS011;24840;47.508;19.376;2023-11-19T13:50:57;34.40;;;10.60;;
39094;SDS011;24840;47.508;19.376;2023-11-19T13:53:23;14.37;;;9.10;;
39094;SDS011;24840;47.508;19.376;2023-11-19T13:55:49;14.50;;;11.03;;
39094;SDS011;24840;47.508;19.376;2023-11-19T13:58:15;12.37;;;9.50;;
39094;SDS011;24840;47.508;19.376;2023-11-19T14:00:41;12.90;;;10.07;;
39094;SDS011;24840;47.508;19.376;2023-11-19T14:03:08;14.50;;;10.53;;
39094;SDS011;24840;47.508;19.376;2023-11-19T14:05:36;14.17;;;10.47;;
39094;SDS011;24840;47.508;19.376;2023-11-19T14:08:02;13.40;;;9.47;;
39094;SDS011;24840;47.508;19.376;2023-11-19T14:10:36;23.30;;;12.07;;
39094;SDS011;24840;47.508;19.376;2023-11-19T14:13:04;15.83;;;11.30;;
39094;SDS011;24840;47.508;19.376;2023-11-19T14:15:30;17.97;;;10.43;;
39094;SDS011;24840;47.508;19.376;2023-11-19T14:17:56;13.33;;;10.67;;
39094;SDS011;24840;47.508;19.376;2023-11-19T14:20:22;18.00;;;12.90;;
39094;SDS011;24840;47.508;19.376;2023-11-19T14:22:49;18.80;;;12.73;;
39094;SDS011;24840;47.508;19.376;2023-11-19T14:25:16;16.80;;;10.83;;
39094;SDS011;24840;47.508;19.376;2023-11-19T14:27:43;12.70;;;9.77;;
39094;SDS011;24840;47.508;19.376;2023-11-19T14:30:10;12.63;;;9.73;;
39094;SDS011;24840;47.508;19.376;2023-11-19T14:32:36;14.03;;;10.93;;
39094;SDS011;24840;47.508;19.376;2023-11-19T14:35:03;14.80;;;10.27;;
39094;SDS011;24840;47.508;19.376;2023-11-19T14:37:29;12.33;;;10.40;;